Time;durP1;ratioP1;P1;durP2;ratioP2;P2;SDS_P1;SDS_P2;PMS_P1;PMS_P2;Temp;Humidity;BMP_temperature;BMP_pressure;BME280_temperature;BME280_humidity;BME280_pressure;Samples;Min_cycle;Max_cycle;Signal;HPM_P1;HPM_P2
2024/04/15 00:02:07;;;;;;;1036.63;949.47;;;9.80;99.90;;;;;;5525586;25;20839;-65
2024/04/15 00:04:35;;;;;;;995.40;912.27;;;9.80;99.90;;;;;;5526185;25;20585;-65
2024/04/15 00:07:01;;;;;;;1044.23;957.93;;;9.70;99.90;;;;;;5526653;25;20327;-64
2024/04/15 00:09:29;;;;;;;1039.23;954.13;;;9.80;99.90;;;;;;5489748;25;20466;-65
2024/04/15 00:11:55;;;;;;;1017.07;931.07;;;9.70;99.90;;;;;;5488551;26;20324;-65
2024/04/15 00:14:24;;;;;;;1057.70;969.50;;;9.70;99.90;;;;;;5511182;26;20476;-65
2024/04/15 00:16:52;;;;;;;1065.57;979.73;;;9.70;99.90;;;;;;5525705;25;20469;-65
2024/04/15 00:19:20;;;;;;;1071.80;986.10;;;9.60;99.90;;;;;;5525771;25;20887;-65
2024/04/15 00:21:46;;;;;;;1082.30;999.90;;;9.50;99.90;;;;;;5525236;25;20468;-65
2024/04/15 00:24:15;;;;;;;1110.20;999.90;;;9.50;99.90;;;;;;5525609;25;20456;-65
2024/04/15 00:26:40;;;;;;;1088.90;999.90;;;9.40;99.90;;;;;;5524259;25;20271;-65
2024/04/15 00:29:09;;;;;;;1097.50;999.90;;;9.40;99.90;;;;;;5525283;25;21136;-65
2024/04/15 00:31:34;;;;;;;1098.00;999.90;;;9.40;99.90;;;;;;5511240;26;20232;-64
2024/04/15 00:34:05;;;;;;;1111.93;999.90;;;9.40;99.90;;;;;;5509728;25;20464;-65
2024/04/15 00:36:31;;;;;;;1118.47;999.90;;;9.30;99.90;;;;;;5513825;26;20848;-64
2024/04/15 00:39:00;;;;;;;1113.90;999.90;;;9.30;99.90;;;;;;5496819;25;20470;-63
2024/04/15 00:41:25;;;;;;;1102.10;999.90;;;9.50;99.90;;;;;;5518429;26;20268;-65
2024/04/15 00:43:54;;;;;;;1103.43;999.90;;;9.40;99.90;;;;;;5515508;26;20456;-65
2024/04/15 00:46:20;;;;;;;1095.90;999.90;;;9.40;99.90;;;;;;5521294;25;20239;-65
2024/04/15 00:48:49;;;;;;;1092.87;999.90;;;9.40;99.90;;;;;;5488421;26;20789;-65
2024/04/15 00:51:18;;;;;;;1097.83;999.90;;;9.40;99.90;;;;;;5487933;26;21012;-64
2024/04/15 00:53:49;;;;;;;1080.63;987.30;;;9.40;99.90;;;;;;5497989;26;20465;-65
2024/04/15 00:56:16;;;;;;;1093.40;999.13;;;9.40;99.90;;;;;;5525280;25;20467;-65
2024/04/15 00:58:45;;;;;;;1077.97;982.93;;;9.50;99.90;;;;;;5525019;25;20799;-64
2024/04/15 01:01:12;;;;;;;1068.57;974.43;;;9.50;99.90;;;;;;5509110;25;20791;-65
2024/04/15 01:03:41;;;;;;;1083.47;989.20;;;9.40;99.90;;;;;;5525130;25;20573;-64
2024/04/15 01:06:08;;;;;;;1083.10;990.20;;;9.40;99.90;;;;;;5524764;25;20608;-63
2024/04/15 01:08:39;;;;;;;1070.93;978.20;;;9.40;99.90;;;;;;5524965;25;21014;-65
2024/04/15 01:11:05;;;;;;;1070.33;975.70;;;9.40;99.90;;;;;;5524429;25;20623;-64
2024/04/15 01:13:34;;;;;;;1065.00;970.70;;;9.30;99.90;;;;;;5518090;25;20478;-65
2024/04/15 01:16:00;;;;;;;1059.37;965.97;;;9.20;99.90;;;;;;5488351;26;20220;-64
2024/04/15 01:18:29;;;;;;;1059.63;964.03;;;9.10;99.90;;;;;;5508644;26;20515;-65
2024/04/15 01:20:57;;;;;;;1045.70;950.60;;;9.00;99.90;;;;;;5524356;25;20576;-65
2024/04/15 01:23:31;;;;;;;1047.70;952.83;;;8.90;99.90;;;;;;5489274;25;20473;-64
2024/04/15 01:26:00;;;;;;;1047.97;952.43;;;8.80;99.90;;;;;;5516442;26;20531;-64
2024/04/15 01:28:28;;;;;;;1055.03;959.43;;;8.70;99.90;;;;;;5488666;25;20504;-65
2024/04/15 01:30:54;;;;;;;1049.87;954.13;;;8.70;99.90;;;;;;5487181;26;20572;-65
2024/04/15 01:33:23;;;;;;;1042.20;946.93;;;8.60;99.90;;;;;;5491198;26;20478;-64
2024/04/15 01:35:49;;;;;;;1031.20;934.70;;;8.50;99.90;;;;;;5524677;25;20349;-64
2024/04/15 01:38:17;;;;;;;1028.87;931.00;;;8.50;99.90;;;;;;5491365;26;20523;-65
2024/04/15 01:40:43;;;;;;;1035.40;935.80;;;8.50;99.90;;;;;;5490250;26;20552;-65
2024/04/15 01:43:14;;;;;;;1031.80;931.43;;;8.50;99.90;;;;;;5492256;26;21043;-64
2024/04/15 01:45:40;;;;;;;1020.10;920.03;;;8.50;99.90;;;;;;5528033;25;20262;-64
2024/04/15 01:48:09;;;;;;;1022.80;921.77;;;8.40;99.90;;;;;;5527599;25;20936;-65
2024/04/15 01:50:34;;;;;;;1011.90;911.60;;;8.40;99.90;;;;;;5527380;25;20761;-63
2024/04/15 01:53:06;;;;;;;1031.20;929.83;;;8.30;99.90;;;;;;5513667;25;20485;-65
2024/04/15 01:55:32;;;;;;;1034.23;932.40;;;8.30;99.90;;;;;;5506457;26;20255;-64
2024/04/15 01:58:01;;;;;;;1006.33;904.77;;;8.30;99.90;;;;;;5490826;26;20458;-64
2024/04/15 02:00:29;;;;;;;1017.10;915.10;;;8.30;99.90;;;;;;5526294;26;20315;-64
2024/04/15 02:02:58;;;;;;;1026.73;924.23;;;8.20;99.90;;;;;;5527716;25;20886;-65
2024/04/15 02:05:23;;;;;;;1036.80;934.00;;;8.30;99.90;;;;;;5492056;25;20575;-64
2024/04/15 02:07:52;;;;;;;1034.27;931.17;;;8.30;99.90;;;;;;5490635;26;20473;-64
2024/04/15 02:10:18;;;;;;;1029.63;927.57;;;8.30;99.90;;;;;;5524511;26;20279;-65
2024/04/15 02:12:46;;;;;;;1028.03;924.23;;;8.30;99.90;;;;;;5527126;25;20923;-63
2024/04/15 02:15:12;;;;;;;1032.77;928.23;;;8.30;99.90;;;;;;5525672;25;20227;-64
2024/04/15 02:17:43;;;;;;;1036.27;932.17;;;8.30;99.90;;;;;;5514599;26;20569;-64
2024/04/15 02:20:10;;;;;;;1026.77;922.77;;;8.30;99.90;;;;;;5511084;25;20346;-64
2024/04/15 02:22:38;;;;;;;1021.93;917.70;;;8.30;99.90;;;;;;5490171;26;20517;-64
2024/04/15 02:25:04;;;;;;;1043.60;937.93;;;8.20;99.90;;;;;;5520746;26;20523;-65
2024/04/15 02:27:35;;;;;;;1034.90;927.80;;;8.20;99.90;;;;;;5527037;25;20570;-65
2024/04/15 02:30:02;;;;;;;1034.13;926.83;;;8.30;99.90;;;;;;5527361;25;20460;-65
2024/04/15 02:32:30;;;;;;;1023.20;915.80;;;8.30;99.90;;;;;;5526741;25;20861;-65
2024/04/15 02:34:59;;;;;;;1035.47;926.97;;;8.20;99.90;;;;;;5527051;25;20569;-65
2024/04/15 02:37:27;;;;;;;1036.10;928.07;;;8.20;99.90;;;;;;5527050;25;20571;-65
2024/04/15 02:39:53;;;;;;;1044.87;937.60;;;8.10;99.90;;;;;;5527036;25;20477;-64
2024/04/15 02:42:21;;;;;;;1034.37;927.57;;;8.00;99.90;;;;;;5492586;25;20591;-65
2024/04/15 02:44:47;;;;;;;1025.40;918.43;;;7.80;99.90;;;;;;5516176;26;20327;-64
2024/04/15 02:47:15;;;;;;;1031.57;923.93;;;7.80;99.90;;;;;;5527079;25;21014;-65
2024/04/15 02:49:41;;;;;;;1048.93;942.07;;;7.70;99.90;;;;;;5517411;25;20854;-64
2024/04/15 02:52:12;;;;;;;1029.00;923.20;;;7.80;99.90;;;;;;5520510;26;20468;-65
2024/04/15 02:54:38;;;;;;;1009.13;904.07;;;7.70;99.90;;;;;;5526662;25;20335;-65
2024/04/15 02:57:07;;;;;;;1036.13;927.87;;;7.70;99.90;;;;;;5526772;25;20518;-64
2024/04/15 02:59:32;;;;;;;1009.47;901.50;;;7.60;99.90;;;;;;5519871;25;20236;-65
2024/04/15 03:02:01;;;;;;;1028.00;919.80;;;7.50;99.90;;;;;;5518776;26;20471;-64
2024/04/15 03:04:29;;;;;;;1026.27;917.07;;;7.40;99.90;;;;;;5521216;25;20563;-65
2024/04/15 03:06:58;;;;;;;1019.07;910.50;;;7.40;99.90;;;;;;5502681;26;20564;-64
2024/04/15 03:09:26;;;;;;;1023.53;915.60;;;7.30;99.90;;;;;;5506645;25;20587;-65
2024/04/15 03:11:54;;;;;;;1025.43;917.30;;;7.20;99.90;;;;;;5489308;26;20526;-65
2024/04/15 03:14:20;;;;;;;1021.13;913.23;;;7.10;99.90;;;;;;5489751;26;20613;-64
2024/04/15 03:16:49;;;;;;;1018.30;909.40;;;7.10;99.90;;;;;;5515580;26;20998;-65
2024/04/15 03:19:15;;;;;;;1026.53;916.43;;;7.00;99.90;;;;;;5493555;25;20338;-64
2024/04/15 03:21:43;;;;;;;1019.30;911.00;;;7.00;99.90;;;;;;5513553;26;20512;-64
2024/04/15 03:24:09;;;;;;;1033.43;924.60;;;7.00;99.90;;;;;;5525236;25;20476;-64
2024/04/15 03:26:40;;;;;;;1040.53;929.90;;;6.90;99.90;;;;;;5489764;26;20575;-65
2024/04/15 03:29:06;;;;;;;1049.53;939.93;;;6.90;99.90;;;;;;5490319;26;20334;-65
2024/04/15 03:31:35;;;;;;;1041.10;931.50;;;6.90;99.90;;;;;;5490579;26;20457;-65
2024/04/15 03:34:00;;;;;;;1050.90;940.77;;;6.90;99.90;;;;;;5490791;26;20450;-64
2024/04/15 03:36:29;;;;;;;1050.40;940.83;;;6.80;99.90;;;;;;5490543;26;20515;-64
2024/04/15 03:38:57;;;;;;;1052.97;942.07;;;6.70;99.90;;;;;;5518279;26;20228;-64
2024/04/15 03:41:26;;;;;;;1054.50;942.30;;;6.70;99.90;;;;;;5491269;25;20588;-63
2024/04/15 03:43:57;;;;;;;1045.57;932.87;;;6.60;99.90;;;;;;5501475;26;20484;-64
2024/04/15 03:46:22;;;;;;;1047.07;935.10;;;6.60;99.90;;;;;;5513687;25;20455;-64
2024/04/15 03:48:51;;;;;;;1051.47;939.13;;;6.60;99.90;;;;;;5490000;26;20579;-64
2024/04/15 03:51:17;;;;;;;1035.77;924.27;;;6.60;99.90;;;;;;5488841;26;20233;-65
2024/04/15 03:53:45;;;;;;;1046.67;933.57;;;6.80;99.90;;;;;;5489193;26;20583;-65
2024/04/15 03:56:11;;;;;;;1047.67;933.57;;;6.80;99.90;;;;;;5489177;26;20347;-64
2024/04/15 03:58:39;;;;;;;1053.00;938.80;;;6.90;99.90;;;;;;5493956;26;21023;-64
2024/04/15 04:01:08;;;;;;;1058.97;946.23;;;6.80;99.90;;;;;;5524739;25;20584;-64
2024/04/15 04:03:36;;;;;;;1055.23;943.67;;;6.80;99.90;;;;;;5525634;25;20528;-64
2024/04/15 04:06:03;;;;;;;1028.40;919.70;;;6.70;99.90;;;;;;5526569;25;20917;-64
2024/04/15 04:08:31;;;;;;;1025.17;916.40;;;6.80;99.90;;;;;;5526833;25;20460;-64
2024/04/15 04:11:01;;;;;;;1048.87;935.93;;;6.70;99.90;;;;;;5526140;25;20460;-65
2024/04/15 04:13:29;;;;;;;1054.83;941.30;;;6.70;99.90;;;;;;5520312;25;20466;-64
2024/04/15 04:15:55;;;;;;;1048.10;936.23;;;6.60;99.90;;;;;;5501897;26;20595;-65
2024/04/15 04:18:26;;;;;;;1025.50;913.10;;;6.50;99.90;;;;;;5526112;25;21014;-65
2024/04/15 04:20:52;;;;;;;1038.67;925.93;;;6.50;99.90;;;;;;5513770;25;20263;-65
2024/04/15 04:23:20;;;;;;;1028.83;912.07;;;6.50;99.90;;;;;;5488974;26;20465;-65
2024/04/15 04:25:46;;;;;;;1063.00;946.63;;;6.50;99.90;;;;;;5489267;26;20263;-64
2024/04/15 04:28:15;;;;;;;1046.50;930.40;;;6.50;99.90;;;;;;5506197;26;20885;-64
2024/04/15 04:30:41;;;;;;;1052.27;918.20;;;6.50;99.90;;;;;;5525486;25;20568;-65
2024/04/15 04:33:10;;;;;;;1060.73;943.50;;;6.50;99.90;;;;;;5525609;25;20889;-65
2024/04/15 04:35:40;;;;;;;1057.43;940.43;;;6.50;99.90;;;;;;5518134;25;20341;-64
2024/04/15 04:38:09;;;;;;;1079.43;962.43;;;6.40;99.90;;;;;;5520035;26;20464;-64
2024/04/15 04:40:38;;;;;;;1070.23;952.53;;;6.40;99.90;;;;;;5525387;25;20971;-64
2024/04/15 04:43:03;;;;;;;1056.87;940.67;;;6.40;99.90;;;;;;5525200;25;20472;-65
2024/04/15 04:45:32;;;;;;;1032.53;917.87;;;6.30;99.90;;;;;;5509974;25;20528;-65
2024/04/15 04:47:58;;;;;;;1061.10;946.20;;;6.20;99.90;;;;;;5525378;25;20456;-65
2024/04/15 04:50:27;;;;;;;1079.30;962.20;;;6.20;99.90;;;;;;5524728;25;22281;-65
2024/04/15 04:52:56;;;;;;;1067.07;951.13;;;6.20;99.90;;;;;;5525091;25;20494;-65
2024/04/15 04:55:25;;;;;;;1055.07;940.47;;;6.20;99.90;;;;;;5524935;25;20508;-65
2024/04/15 04:57:51;;;;;;;1048.93;933.83;;;6.20;99.90;;;;;;5525286;25;20464;-65
2024/04/15 05:00:19;;;;;;;1051.27;936.13;;;6.20;99.90;;;;;;5522069;25;20532;-64
2024/04/15 05:02:46;;;;;;;1062.03;946.97;;;6.30;99.90;;;;;;5498093;26;21038;-65
2024/04/15 05:05:14;;;;;;;1053.90;939.50;;;6.30;99.90;;;;;;5508166;25;20905;-65
2024/04/15 05:07:40;;;;;;;1049.43;933.60;;;6.40;99.90;;;;;;5488362;26;20572;-65
2024/04/15 05:10:11;;;;;;;1059.97;944.77;;;6.40;99.90;;;;;;5518682;26;20472;-65
2024/04/15 05:12:37;;;;;;;1058.37;945.47;;;6.40;99.90;;;;;;5523915;25;20224;-65
2024/04/15 05:15:06;;;;;;;1072.30;956.70;;;6.50;99.90;;;;;;5514642;25;20514;-65
2024/04/15 05:17:32;;;;;;;1079.40;963.63;;;6.50;99.90;;;;;;5509251;26;20275;-65
2024/04/15 05:20:00;;;;;;;1066.50;953.10;;;6.60;99.90;;;;;;5492751;26;20462;-67
2024/04/15 05:22:26;;;;;;;1050.40;938.67;;;6.70;99.90;;;;;;5493248;26;20279;-64
2024/04/15 05:24:56;;;;;;;1054.00;944.97;;;6.80;99.90;;;;;;5489760;26;20992;-65
2024/04/15 05:27:24;;;;;;;1045.03;935.70;;;7.00;99.90;;;;;;5500872;26;20525;-65
2024/04/15 05:29:52;;;;;;;1050.87;945.17;;;7.00;99.90;;;;;;5516840;25;20468;-65
2024/04/15 05:32:18;;;;;;;1045.00;938.90;;;7.10;99.90;;;;;;5523850;25;20586;-65
2024/04/15 05:34:47;;;;;;;1077.57;973.03;;;7.20;99.90;;;;;;5524477;25;21023;-64
2024/04/15 05:37:12;;;;;;;1076.67;973.87;;;7.30;99.90;;;;;;5502387;25;20700;-65
2024/04/15 05:39:41;;;;;;;1102.67;999.90;;;7.40;99.90;;;;;;5523322;25;20456;-65
2024/04/15 05:42:07;;;;;;;1082.37;987.43;;;7.40;99.90;;;;;;5508396;25;20224;-65
2024/04/15 05:44:38;;;;;;;1108.80;999.90;;;7.60;99.90;;;;;;5524190;25;20512;-65
2024/04/15 05:47:04;;;;;;;1124.03;999.90;;;7.70;99.90;;;;;;5524278;25;20332;-65
2024/04/15 05:49:37;;;;;;;1133.33;999.90;;;7.70;99.90;;;;;;5523800;25;20457;-65
2024/04/15 05:52:04;;;;;;;1152.70;999.90;;;7.90;99.90;;;;;;5523706;25;20513;-65
2024/04/15 05:54:32;;;;;;;1145.80;999.90;;;7.90;99.90;;;;;;5524077;25;20483;-65
2024/04/15 05:56:58;;;;;;;1138.70;999.90;;;8.00;99.90;;;;;;5523579;25;20476;-65
2024/04/15 05:59:26;;;;;;;1118.93;999.90;;;8.20;99.90;;;;;;5524453;25;21120;-65
2024/04/15 06:01:55;;;;;;;1046.23;982.03;;;8.20;99.90;;;;;;5523522;25;20465;-65
2024/04/15 06:04:23;;;;;;;956.53;899.20;;;8.30;99.90;;;;;;5489207;25;20931;-66
2024/04/15 06:06:49;;;;;;;924.47;869.00;;;8.30;99.90;;;;;;5513548;26;20610;-66
2024/04/15 06:09:18;;;;;;;866.93;818.20;;;8.30;99.90;;;;;;5523897;25;20465;-65
2024/04/15 06:11:43;;;;;;;861.50;814.07;;;8.40;99.90;;;;;;5498272;25;20333;-66
2024/04/15 06:14:12;;;;;;;826.43;784.93;;;8.40;99.90;;;;;;5518449;26;20476;-66
2024/04/15 06:16:38;;;;;;;801.13;764.73;;;8.40;99.90;;;;;;5514760;25;20333;-65
2024/04/15 06:19:09;;;;;;;794.10;758.70;;;8.40;99.90;;;;;;5517232;26;20483;-66
2024/04/15 06:21:35;;;;;;;805.10;768.87;;;8.40;99.90;;;;;;5522485;25;20232;-66
2024/04/15 06:24:03;;;;;;;799.60;764.37;;;8.40;99.90;;;;;;5522771;25;20536;-66
2024/04/15 06:26:29;;;;;;;812.03;774.67;;;8.40;99.90;;;;;;5510125;25;20289;-66
2024/04/15 06:28:57;;;;;;;820.23;781.97;;;8.40;99.90;;;;;;5526310;25;20814;-66
2024/04/15 06:31:23;;;;;;;825.50;786.33;;;8.50;99.90;;;;;;5510627;25;20225;-65
2024/04/15 06:33:52;;;;;;;811.43;774.60;;;8.50;99.90;;;;;;5526415;25;20553;-66
2024/04/15 06:36:20;;;;;;;777.37;745.97;;;8.60;99.90;;;;;;5524022;25;20535;-65
2024/04/15 06:38:48;;;;;;;812.87;777.20;;;8.60;99.90;;;;;;5497996;26;20549;-65
2024/04/15 06:41:14;;;;;;;820.67;784.67;;;8.70;99.90;;;;;;5523433;25;20555;-65
2024/04/15 06:43:43;;;;;;;756.77;729.47;;;8.80;99.90;;;;;;5522656;25;20570;-66
2024/04/15 06:46:09;;;;;;;797.93;765.53;;;8.80;99.90;;;;;;5521071;25;20399;-66
2024/04/15 06:48:39;;;;;;;647.40;626.43;;;8.90;99.90;;;;;;5509498;26;20600;-66
2024/04/15 06:51:05;;;;;;;568.33;550.53;;;8.90;99.90;;;;;;5522600;25;20498;-66
2024/04/15 06:53:36;;;;;;;528.97;512.63;;;8.90;99.90;;;;;;5525585;25;20456;-66
2024/04/15 06:56:02;;;;;;;560.67;543.47;;;8.90;99.90;;;;;;5497512;25;20288;-66
2024/04/15 06:58:32;;;;;;;531.33;514.80;;;8.90;99.90;;;;;;5490577;26;20807;-66
2024/04/15 07:00:58;;;;;;;459.00;444.53;;;8.90;99.90;;;;;;5518795;26;21056;-66
2024/04/15 07:03:27;;;;;;;441.77;426.47;;;8.80;99.90;;;;;;5526865;25;20476;-66
2024/04/15 07:05:53;;;;;;;519.53;501.47;;;8.80;99.90;;;;;;5511459;25;20271;-66
2024/04/15 07:08:22;;;;;;;461.03;445.77;;;8.80;99.90;;;;;;5526848;25;20569;-66
2024/04/15 07:10:51;;;;;;;501.93;484.57;;;8.80;99.90;;;;;;5526120;25;20231;-66
2024/04/15 07:13:20;;;;;;;520.47;502.47;;;8.90;99.90;;;;;;5526475;25;20511;-66
2024/04/15 07:15:46;;;;;;;442.40;427.20;;;9.10;99.90;;;;;;5515062;25;20922;-66
2024/04/15 07:18:14;;;;;;;337.90;327.20;;;9.10;99.90;;;;;;5518817;26;20296;-66
2024/04/15 07:20:40;;;;;;;283.27;273.93;;;9.10;99.90;;;;;;5518734;25;20236;-66
2024/04/15 07:23:09;;;;;;;325.40;315.03;;;9.10;99.90;;;;;;5522929;25;20517;-65
2024/04/15 07:25:35;;;;;;;238.63;230.43;;;9.10;99.90;;;;;;5519852;25;20475;-66
2024/04/15 07:28:06;;;;;;;242.57;234.67;;;9.00;99.90;;;;;;5518111;25;20938;-67
2024/04/15 07:30:32;;;;;;;383.47;370.80;;;9.00;99.90;;;;;;5516687;26;20344;-68
2024/04/15 07:33:01;;;;;;;494.67;476.47;;;9.10;99.90;;;;;;5510455;25;20460;-67
2024/04/15 07:35:27;;;;;;;251.03;242.47;;;9.30;99.90;;;;;;5521004;26;20219;-67
2024/04/15 07:37:55;;;;;;;303.13;293.23;;;9.40;99.50;;;;;;5521007;25;20511;-66
2024/04/15 07:40:21;;;;;;;187.80;181.30;;;9.50;99.90;;;;;;5508320;25;20470;-63
2024/04/15 07:42:49;;;;;;;193.20;186.67;;;9.60;97.90;;;;;;5480940;26;20930;-66
2024/04/15 07:45:18;;;;;;;149.20;144.07;;;9.70;98.00;;;;;;5493006;26;20315;-66
2024/04/15 07:47:46;;;;;;;37.70;35.50;;;9.90;98.00;;;;;;5525966;25;20464;-66
2024/04/15 07:50:12;;;;;;;25.63;24.23;;;10.00;93.00;;;;;;5518924;25;20889;-66
2024/04/15 07:52:40;;;;;;;19.23;17.27;;;10.00;91.20;;;;;;5525241;25;20576;-67
2024/04/15 07:55:06;;;;;;;35.93;33.57;;;10.10;91.00;;;;;;5526015;25;20348;-67
2024/04/15 07:57:35;;;;;;;10.67;7.27;;;10.50;93.70;;;;;;5503919;25;20466;-67
2024/04/15 08:00:01;;;;;;;10.23;4.33;;;10.60;85.20;;;;;;5488984;26;20462;-66
2024/04/15 08:02:32;;;;;;;18.40;4.50;;;10.90;77.70;;;;;;5524498;26;20876;-66
2024/04/15 08:04:58;;;;;;;15.00;4.50;;;11.10;77.80;;;;;;5512562;25;20275;-66
2024/04/15 08:07:27;;;;;;;11.53;4.27;;;11.20;77.80;;;;;;5488801;26;20470;-66
2024/04/15 08:09:52;;;;;;;11.03;4.47;;;11.10;62.90;;;;;;5516297;26;20650;-67
2024/04/15 08:12:21;;;;;;;10.23;3.90;;;11.30;62.30;;;;;;5514054;25;20514;-68
2024/04/15 08:14:47;;;;;;;8.17;3.23;;;11.50;62.30;;;;;;5513798;26;20778;-66
2024/04/15 08:17:15;;;;;;;9.37;3.47;;;12.20;62.70;;;;;;5502689;25;20576;-66
2024/04/15 08:19:45;;;;;;;8.07;2.60;;;13.00;52.30;;;;;;5490540;26;20237;-66
2024/04/15 08:22:13;;;;;;;19.90;4.80;;;13.70;29.60;;;;;;5490656;26;20466;-66
2024/04/15 08:24:39;;;;;;;10.67;2.90;;;14.10;29.90;;;;;;5492042;26;20478;-67
2024/04/15 08:27:08;;;;;;;8.27;2.60;;;14.00;22.70;;;;;;5490748;26;21133;-67
2024/04/15 08:29:34;;;;;;;8.10;2.37;;;14.20;23.00;;;;;;5511363;26;20265;-66
2024/04/15 08:32:02;;;;;;;10.37;2.60;;;14.10;15.50;;;;;;5514175;25;20466;-65
2024/04/15 08:34:28;;;;;;;11.73;2.80;;;13.90;17.20;;;;;;5508806;26;20343;-66
2024/04/15 08:36:59;;;;;;;15.33;2.87;;;13.80;15.30;;;;;;5524258;25;20472;-66
2024/04/15 08:39:25;;;;;;;11.83;2.60;;;13.80;20.10;;;;;;5509420;25;20771;-66
2024/04/15 08:41:56;;;;;;;13.83;2.60;;;13.70;15.20;;;;;;5524199;25;20464;-66
2024/04/15 08:44:25;;;;;;;11.20;3.23;;;13.70;15.20;;;;;;5503655;25;20557;-65
2024/04/15 08:46:54;;;;;;;8.40;2.20;;;13.50;10.50;;;;;;5522684;26;20580;-66
2024/04/15 08:49:20;;;;;;;8.97;2.43;;;13.70;15.20;;;;;;5520757;25;20585;-66
2024/04/15 08:51:49;;;;;;;10.50;2.70;;;14.00;15.00;;;;;;5517187;25;21014;-66
2024/04/15 08:54:17;;;;;;;10.87;2.37;;;14.20;14.20;;;;;;5524816;25;20512;-66
2024/04/15 08:56:47;;;;;;;5.90;2.20;;;14.00;7.90;;;;;;5523644;25;20469;-66
2024/04/15 08:59:15;;;;;;;8.70;2.40;;;14.00;7.80;;;;;;5492065;25;20469;-66
2024/04/15 09:01:44;;;;;;;7.00;2.40;;;14.20;8.00;;;;;;5487302;26;20536;-66
2024/04/15 09:04:11;;;;;;;10.33;2.40;;;14.30;4.80;;;;;;5519362;26;20456;-66
2024/04/15 09:06:40;;;;;;;11.20;2.50;;;14.30;1.00;;;;;;5500909;25;20458;-65
2024/04/15 09:09:06;;;;;;;8.57;2.70;;;14.60;1.80;;;;;;5487141;26;20477;-65
2024/04/15 09:11:38;;;;;;;10.00;2.27;;;14.30;1.00;;;;;;5514443;25;20545;-66
2024/04/15 09:14:04;;;;;;;10.17;2.30;;;14.30;1.00;;;;;;5497674;26;20291;-65
2024/04/15 09:16:33;;;;;;;6.77;2.13;;;14.10;1.00;;;;;;5511574;26;20464;-66
2024/04/15 09:18:58;;;;;;;13.57;2.67;;;13.70;1.00;;;;;;5513224;25;20460;-66
2024/04/15 09:21:27;;;;;;;6.87;2.70;;;13.80;1.00;;;;;;5515875;26;20472;-66
2024/04/15 09:23:53;;;;;;;8.40;3.63;;;13.70;1.00;;;;;;5494586;26;20354;-67
2024/04/15 09:26:22;;;;;;;9.13;2.67;;;14.00;1.00;;;;;;5486605;26;20502;-65
2024/04/15 09:28:50;;;;;;;11.63;3.77;;;14.20;1.00;;;;;;5497483;26;20594;-65
2024/04/15 09:31:18;;;;;;;7.93;2.50;;;14.10;1.00;;;;;;5523358;25;20568;-66
2024/04/15 09:33:45;;;;;;;9.63;3.27;;;13.90;1.00;;;;;;5523868;25;20468;-66
2024/04/15 09:36:13;;;;;;;8.07;2.70;;;13.80;1.00;;;;;;5520608;25;21007;-66
2024/04/15 09:38:39;;;;;;;7.17;2.67;;;13.80;1.00;;;;;;5494535;26;20462;-66
2024/04/15 09:41:08;;;;;;;11.37;2.50;;;13.90;1.00;;;;;;5486346;26;20528;-67
2024/04/15 09:43:36;;;;;;;8.83;1.97;;;13.90;1.00;;;;;;5508865;26;20468;-66
2024/04/15 09:46:07;;;;;;;8.60;2.00;;;14.10;1.00;;;;;;5508981;25;20469;-67
2024/04/15 09:48:36;;;;;;;9.17;2.53;;;14.20;1.00;;;;;;5500393;25;21134;-67
2024/04/15 09:51:08;;;;;;;11.07;2.90;;;14.50;1.00;;;;;;5489624;26;20460;-67
2024/04/15 09:53:38;;;;;;;11.70;2.50;;;15.20;1.00;;;;;;5517258;26;20539;-67
2024/04/15 09:56:14;;;;;;;10.90;2.77;;;15.60;1.00;;;;;;5521673;25;20956;-66
2024/04/15 09:58:44;;;;;;;11.20;2.43;;;16.40;1.00;;;;;;5507372;26;20477;-66
2024/04/15 10:01:19;;;;;;;7.83;4.10;;;16.70;1.00;;;;;;5512428;25;20819;-66
2024/04/15 10:03:50;;;;;;;6.43;2.10;;;16.70;1.00;;;;;;5526581;25;20569;-67
2024/04/15 10:06:26;;;;;;;8.83;3.17;;;17.20;1.00;;;;;;5527673;25;20472;-67
2024/04/15 10:08:53;;;;;;;12.07;3.10;;;17.70;1.00;;;;;;5525332;25;21040;-67
2024/04/15 10:11:21;;;;;;;12.83;2.80;;;18.00;1.00;;;;;;5523834;25;20995;-67
2024/04/15 10:13:48;;;;;;;7.10;1.83;;;17.90;1.00;;;;;;5492678;26;20457;-67
2024/04/15 10:16:22;;;;;;;7.83;2.80;;;17.20;1.00;;;;;;5527074;25;20464;-67
2024/04/15 10:18:52;;;;;;;9.17;3.17;;;16.70;1.00;;;;;;5520746;25;20500;-66
2024/04/15 10:21:21;;;;;;;10.10;2.87;;;16.70;1.00;;;;;;5524118;25;20468;-67
2024/04/15 10:23:47;;;;;;;12.40;2.47;;;16.70;1.00;;;;;;5525712;25;20507;-67
2024/04/15 10:26:16;;;;;;;7.53;2.57;;;16.40;1.00;;;;;;5514654;25;20456;-67
2024/04/15 10:28:42;;;;;;;14.40;2.30;;;16.20;1.00;;;;;;5527656;25;20460;-66
2024/04/15 10:31:15;;;;;;;8.70;2.53;;;15.60;1.00;;;;;;5515905;25;20516;-67
2024/04/15 10:33:51;;;;;;;7.30;2.20;;;15.60;1.00;;;;;;5512460;26;20224;-65
2024/04/15 10:36:30;;;;;;;10.20;3.57;;;15.70;1.00;;;;;;5524813;25;20460;-62
2024/04/15 10:39:03;;;;;;;11.70;3.23;;;16.20;1.00;;;;;;5527108;25;20460;-66
2024/04/15 10:41:32;;;;;;;12.83;2.93;;;15.60;1.00;;;;;;5505227;25;20583;-68
2024/04/15 10:43:59;;;;;;;13.57;4.20;;;15.20;1.00;;;;;;5502574;26;20466;-68
2024/04/15 10:46:28;;;;;;;11.43;3.30;;;15.20;1.00;;;;;;5489851;26;20473;-68
2024/04/15 10:48:58;;;;;;;18.30;2.73;;;15.70;1.00;;;;;;5510672;26;20579;-71
2024/04/15 10:51:26;;;;;;;10.77;2.30;;;16.20;1.00;;;;;;5525697;26;20553;-70
2024/04/15 10:53:52;;;;;;;8.87;3.07;;;17.20;1.00;;;;;;5528784;25;20682;-69
2024/04/15 10:56:21;;;;;;;15.80;4.17;;;17.10;1.00;;;;;;5498294;25;20469;-67
2024/04/15 10:58:47;;;;;;;21.70;4.50;;;17.00;1.00;;;;;;5520846;25;20225;-70
2024/04/15 11:01:17;;;;;;;11.13;2.60;;;17.10;1.00;;;;;;5512692;26;20344;-68
2024/04/15 11:03:43;;;;;;;6.73;1.80;;;16.80;1.00;;;;;;5518336;26;20232;-66
2024/04/15 11:06:14;;;;;;;9.90;2.30;;;16.60;1.00;;;;;;5517011;25;20515;-66
2024/04/15 11:08:40;;;;;;;8.63;2.37;;;16.60;1.00;;;;;;5522038;26;20460;-66
2024/04/15 11:11:10;;;;;;;8.33;2.27;;;16.90;1.00;;;;;;5525011;25;20515;-64
2024/04/15 11:13:38;;;;;;;10.13;2.40;;;17.50;1.00;;;;;;5526675;25;20243;-67
2024/04/15 11:16:07;;;;;;;7.77;2.50;;;17.50;1.00;;;;;;5526849;25;20515;-66
2024/04/15 11:18:33;;;;;;;7.70;1.93;;;17.40;1.00;;;;;;5504941;26;20470;-66
2024/04/15 11:21:02;;;;;;;7.17;2.27;;;17.10;1.00;;;;;;5489214;26;20481;-66
2024/04/15 11:23:31;;;;;;;11.20;2.87;;;17.60;1.00;;;;;;5526044;26;20224;-66
2024/04/15 11:26:02;;;;;;;9.07;2.20;;;18.30;1.00;;;;;;5526614;25;20464;-66
2024/04/15 11:28:29;;;;;;;12.53;1.97;;;18.70;1.00;;;;;;5526356;25;20461;-66
2024/04/15 11:30:59;;;;;;;7.50;2.63;;;18.50;1.00;;;;;;5525911;25;20456;-66
2024/04/15 11:33:26;;;;;;;5.83;2.17;;;18.40;1.00;;;;;;5526231;25;20910;-66
2024/04/15 11:35:56;;;;;;;11.97;2.73;;;18.40;1.00;;;;;;5526479;25;20472;-67
2024/04/15 11:38:24;;;;;;;9.50;2.37;;;18.30;1.00;;;;;;5522509;25;20472;-65
2024/04/15 11:40:55;;;;;;;8.60;2.63;;;18.10;1.00;;;;;;5489021;26;21004;-66
2024/04/15 11:43:21;;;;;;;5.90;1.80;;;17.50;1.00;;;;;;5523610;26;20528;-66
2024/04/15 11:45:54;;;;;;;7.00;2.10;;;17.40;1.00;;;;;;5526512;25;20599;-66
2024/04/15 11:48:20;;;;;;;7.67;2.30;;;17.80;1.00;;;;;;5507402;25;20461;-66
2024/04/15 11:50:50;;;;;;;10.40;2.50;;;17.20;1.00;;;;;;5498804;26;20943;-66
2024/04/15 11:53:19;;;;;;;8.33;1.70;;;16.80;1.00;;;;;;5508501;25;20591;-67
2024/04/15 11:55:48;;;;;;;10.83;2.73;;;16.30;1.00;;;;;;5499309;26;20504;-66
2024/04/15 11:58:19;;;;;;;8.93;1.80;;;16.00;1.00;;;;;;5520099;25;20460;-66
2024/04/15 12:00:48;;;;;;;16.40;2.57;;;16.00;1.00;;;;;;5480401;26;20464;-66
2024/04/15 12:03:15;;;;;;;8.03;2.20;;;15.80;1.00;;;;;;5487285;26;20541;-67
2024/04/15 12:05:43;;;;;;;7.27;1.90;;;15.60;1.00;;;;;;5526308;25;21019;-67
2024/04/15 12:08:10;;;;;;;8.40;2.20;;;15.30;1.00;;;;;;5525875;25;20457;-66
2024/04/15 12:10:39;;;;;;;8.13;1.70;;;15.10;1.00;;;;;;5525670;25;20556;-66
2024/04/15 12:13:04;;;;;;;11.33;2.90;;;15.20;1.00;;;;;;5526061;25;20524;-66
2024/04/15 12:15:36;;;;;;;13.70;2.87;;;15.30;1.00;;;;;;5517299;25;20464;-66
2024/04/15 12:18:03;;;;;;;8.90;2.40;;;15.20;1.00;;;;;;5526430;25;20528;-67
2024/04/15 12:20:31;;;;;;;9.87;2.70;;;15.00;1.00;;;;;;5525656;25;20570;-66
2024/04/15 12:22:57;;;;;;;7.03;2.40;;;15.20;1.00;;;;;;5524772;25;20468;-67
2024/04/15 12:25:26;;;;;;;5.37;1.87;;;15.10;1.00;;;;;;5515306;25;20574;-66
2024/04/15 12:27:52;;;;;;;10.17;1.97;;;14.60;1.00;;;;;;5525619;25;20769;-66